createdAt,value
2019-03-27T00:00:35.300Z,7.14
2019-03-27T00:01:35.289Z,7.21
2019-03-27T00:02:35.278Z,7.24
2019-03-27T00:03:35.271Z,7.25
2019-03-27T00:04:35.255Z,7.23
2019-03-27T00:05:35.247Z,7.23
2019-03-27T00:06:35.234Z,7.23
2019-03-27T00:07:35.222Z,7.28
2019-03-27T00:08:35.210Z,7.23
2019-03-27T00:09:35.200Z,7.20
2019-03-27T00:10:35.191Z,7.18
2019-03-27T00:11:35.227Z,7.20
2019-03-27T00:12:35.166Z,7.18
2019-03-27T00:13:35.154Z,7.17
2019-03-27T00:14:35.143Z,7.18
2019-03-27T00:15:35.133Z,7.15
2019-03-27T00:16:35.121Z,7.24
2019-03-27T00:17:35.111Z,7.25
2019-03-27T00:18:35.099Z,7.23
2019-03-27T00:19:35.088Z,7.33
2019-03-27T00:20:35.076Z,7.23
2019-03-27T00:21:35.065Z,7.18
2019-03-27T00:22:35.058Z,7.21
2019-03-27T00:23:35.045Z,7.24
2019-03-27T00:24:35.033Z,7.24
2019-03-27T00:25:35.021Z,7.20
2019-03-27T00:26:35.010Z,7.31
2019-03-27T00:27:34.998Z,7.25
2019-03-27T00:28:34.986Z,7.23
2019-03-27T00:29:34.976Z,7.15
2019-03-27T00:30:34.964Z,7.21
2019-03-27T00:31:34.953Z,7.23
2019-03-27T00:32:34.941Z,7.17
2019-03-27T00:33:34.931Z,7.20
2019-03-27T00:34:34.921Z,7.20
2019-03-27T00:35:34.915Z,7.21
2019-03-27T00:36:34.897Z,7.18
2019-03-27T00:37:34.886Z,7.18
2019-03-27T00:38:34.876Z,7.18
2019-03-27T00:39:34.863Z,7.21
2019-03-27T00:40:34.852Z,7.17
2019-03-27T00:41:34.842Z,7.17
2019-03-27T00:42:34.928Z,7.10
2019-03-27T00:43:34.818Z,7.15
2019-03-27T00:44:34.806Z,7.13
2019-03-27T00:45:34.799Z,7.06
2019-03-27T00:46:34.784Z,7.11
2019-03-27T00:47:34.773Z,6.97
2019-03-27T00:48:34.770Z,7.07
2019-03-27T00:49:34.750Z,7.03
2019-03-27T00:50:34.738Z,7.07
2019-03-27T00:51:34.728Z,7.00
2019-03-27T00:52:34.716Z,7.00
2019-03-27T00:53:34.704Z,7.05
2019-03-27T00:54:34.694Z,6.95
2019-03-27T00:55:34.682Z,6.99
2019-03-27T00:56:34.670Z,6.99
2019-03-27T00:57:34.658Z,6.99
2019-03-27T00:58:34.648Z,6.97
2019-03-27T00:59:34.636Z,7.00
2019-03-27T01:00:34.624Z,7.00
2019-03-27T01:01:34.613Z,6.99
2019-03-27T01:02:34.603Z,6.99
2019-03-27T01:03:34.590Z,6.99
2019-03-27T01:04:34.578Z,6.87
2019-03-27T01:05:34.566Z,7.00
2019-03-27T01:06:34.555Z,6.93
2019-03-27T01:07:34.544Z,6.97
2019-03-27T01:08:34.531Z,6.97
2019-03-27T01:09:34.521Z,6.93
2019-03-27T01:10:34.517Z,6.93
2019-03-27T01:11:34.498Z,6.89
2019-03-27T01:12:34.485Z,6.95
2019-03-27T01:13:34.476Z,6.97
2019-03-27T01:14:34.463Z,6.95
2019-03-27T01:15:39.921Z,6.96
2019-03-27T01:16:34.439Z,6.96
2019-03-27T01:17:34.428Z,6.89
2019-03-27T01:18:34.416Z,6.82
2019-03-27T01:19:34.405Z,6.85
2019-03-27T01:20:34.393Z,6.92
2019-03-27T01:21:34.382Z,6.81
2019-03-27T01:22:34.370Z,6.84
2019-03-27T01:23:34.358Z,6.78
2019-03-27T01:24:34.346Z,6.77
2019-03-27T01:25:34.385Z,6.82
2019-03-27T01:26:34.323Z,6.75
2019-03-27T01:27:35.860Z,6.81
2019-03-27T01:28:34.300Z,6.77
2019-03-27T01:29:34.287Z,6.70
2019-03-27T01:30:34.276Z,6.67
2019-03-27T01:31:34.292Z,6.59
2019-03-27T01:32:34.252Z,6.67
2019-03-27T01:33:34.240Z,6.59
2019-03-27T01:34:34.228Z,6.60
2019-03-27T01:35:34.217Z,6.67
2019-03-27T01:36:34.204Z,6.57
2019-03-27T01:37:34.192Z,6.72
2019-03-27T01:38:34.184Z,6.59
2019-03-27T01:39:34.168Z,6.59
2019-03-27T01:40:34.156Z,6.52
2019-03-27T01:41:34.146Z,6.63
2019-03-27T01:42:34.132Z,6.62
2019-03-27T01:43:34.120Z,6.59
2019-03-27T01:44:34.108Z,6.49
2019-03-27T01:45:34.095Z,6.49
2019-03-27T01:46:34.083Z,6.51
2019-03-27T01:47:34.071Z,6.44
2019-03-27T01:48:34.058Z,6.44
2019-03-27T01:49:34.096Z,6.45
2019-03-27T01:50:34.037Z,6.44
2019-03-27T01:51:34.022Z,6.41
2019-03-27T01:52:34.009Z,6.28
2019-03-27T01:53:33.997Z,6.28
2019-03-27T01:54:33.985Z,6.24
2019-03-27T01:55:33.973Z,6.30
2019-03-27T01:56:33.961Z,6.14
2019-03-27T01:57:33.957Z,6.17
2019-03-27T01:58:33.938Z,6.08
2019-03-27T01:59:33.924Z,6.04
2019-03-27T02:00:33.911Z,5.98
2019-03-27T02:01:33.899Z,5.91
2019-03-27T02:02:33.886Z,5.94
2019-03-27T02:03:33.895Z,5.86
2019-03-27T02:04:33.860Z,5.87
2019-03-27T02:05:33.899Z,5.75
2019-03-27T02:06:33.836Z,5.71
2019-03-27T02:07:33.829Z,5.64
2019-03-27T02:08:33.811Z,5.65
2019-03-27T02:09:33.799Z,5.61
2019-03-27T02:10:33.789Z,5.56
2019-03-27T02:11:33.776Z,5.48
2019-03-27T02:12:33.761Z,5.43
2019-03-27T02:13:33.750Z,5.43
2019-03-27T02:14:33.737Z,5.43
2019-03-27T02:15:33.725Z,5.36
2019-03-27T02:16:33.719Z,5.28
2019-03-27T02:17:33.700Z,5.26
2019-03-27T02:18:33.688Z,5.30
2019-03-27T02:19:33.676Z,5.28
2019-03-27T02:20:33.662Z,5.25
2019-03-27T02:21:33.650Z,5.25
2019-03-27T02:22:33.638Z,5.25
2019-03-27T02:23:33.625Z,5.23
2019-03-27T02:24:33.619Z,5.29
2019-03-27T02:25:33.599Z,5.12
2019-03-27T02:26:33.588Z,5.15
2019-03-27T02:27:33.576Z,5.18
2019-03-27T02:28:33.562Z,5.15
2019-03-27T02:29:33.550Z,5.08
2019-03-27T02:30:33.538Z,5.14
2019-03-27T02:31:33.527Z,5.00
2019-03-27T02:32:33.513Z,5.02
2019-03-27T02:33:33.500Z,4.97
2019-03-27T02:34:33.493Z,5.00
2019-03-27T02:35:33.478Z,5.00
2019-03-27T02:36:33.465Z,4.99
2019-03-27T02:37:33.450Z,4.99
2019-03-27T02:38:33.437Z,5.04
2019-03-27T02:39:33.425Z,5.08
2019-03-27T02:40:33.412Z,5.08
2019-03-27T02:41:33.400Z,5.08
2019-03-27T02:42:33.390Z,5.17
2019-03-27T02:43:33.375Z,5.25
2019-03-27T02:44:33.360Z,5.26
2019-03-27T02:45:33.350Z,5.23
2019-03-27T02:46:33.336Z,5.32
2019-03-27T02:47:33.333Z,5.25
2019-03-27T02:48:33.311Z,5.35
2019-03-27T02:49:33.304Z,5.43
2019-03-27T02:50:33.286Z,5.48
2019-03-27T02:51:33.277Z,5.56
2019-03-27T02:52:33.263Z,5.59
2019-03-27T02:53:33.251Z,5.71
2019-03-27T02:54:33.237Z,5.71
2019-03-27T02:55:33.225Z,5.83
2019-03-27T02:56:33.213Z,5.86
2019-03-27T02:57:33.202Z,5.90
2019-03-27T02:58:33.187Z,5.87
2019-03-27T02:59:33.181Z,5.86
2019-03-27T03:00:33.164Z,5.87
2019-03-27T03:01:33.159Z,5.87
2019-03-27T03:02:33.141Z,5.87
2019-03-27T03:03:33.132Z,5.87
2019-03-27T03:04:33.115Z,5.90
2019-03-27T03:05:33.103Z,5.87
2019-03-27T03:06:33.140Z,5.89
2019-03-27T03:07:33.079Z,5.87
2019-03-27T03:08:33.067Z,5.89
2019-03-27T03:09:33.055Z,5.80
2019-03-27T03:10:33.043Z,5.82
2019-03-27T03:11:33.032Z,5.83
2019-03-27T03:12:33.019Z,5.79
2019-03-27T03:13:33.015Z,5.73
2019-03-27T03:14:32.993Z,5.76
2019-03-27T03:15:32.984Z,5.69
2019-03-27T03:16:42.251Z,5.66
2019-03-27T03:17:32.959Z,5.69
2019-03-27T03:18:32.947Z,5.69
2019-03-27T03:19:32.933Z,5.59
2019-03-27T03:20:32.923Z,5.62
2019-03-27T03:21:32.913Z,5.46
2019-03-27T03:22:32.898Z,5.44
2019-03-27T03:23:32.887Z,5.38
2019-03-27T03:24:32.872Z,5.32
2019-03-27T03:25:32.865Z,5.29
2019-03-27T03:26:32.847Z,5.28
2019-03-27T03:27:32.837Z,5.18
2019-03-27T03:28:32.837Z,5.04
2019-03-27T03:29:32.812Z,5.12
2019-03-27T03:30:32.816Z,5.04
2019-03-27T03:31:32.841Z,4.99
2019-03-27T03:32:32.775Z,4.99
2019-03-27T03:33:32.770Z,4.93
2019-03-27T03:34:32.752Z,4.94
2019-03-27T03:35:32.737Z,4.90
2019-03-27T03:36:32.729Z,4.89
2019-03-27T03:37:32.712Z,4.90
2019-03-27T03:38:32.714Z,4.82
2019-03-27T03:39:32.687Z,4.77
2019-03-27T03:40:32.674Z,4.74
2019-03-27T03:41:32.662Z,4.74
2019-03-27T03:42:32.652Z,4.67
2019-03-27T03:43:32.637Z,4.74
2019-03-27T03:44:32.624Z,4.58
2019-03-27T03:45:32.612Z,4.53
2019-03-27T03:46:32.599Z,4.60
2019-03-27T03:47:32.590Z,4.58
2019-03-27T03:48:32.574Z,4.62
2019-03-27T03:49:32.564Z,4.59
2019-03-27T03:50:32.548Z,4.58
2019-03-27T03:51:32.536Z,4.62
2019-03-27T03:52:32.522Z,4.56
2019-03-27T03:53:32.510Z,4.52
2019-03-27T03:54:32.497Z,4.44
2019-03-27T03:55:32.485Z,4.42
2019-03-27T03:56:32.471Z,4.45
2019-03-27T03:57:32.458Z,4.44
2019-03-27T03:58:32.448Z,4.53
2019-03-27T03:59:32.435Z,4.40
2019-03-27T04:00:32.421Z,4.48
2019-03-27T04:01:32.433Z,4.41
2019-03-27T04:02:32.398Z,4.45
2019-03-27T04:03:32.385Z,4.42
2019-03-27T04:04:32.370Z,4.42
2019-03-27T04:05:32.358Z,4.41
2019-03-27T04:06:32.347Z,4.38
2019-03-27T04:07:32.333Z,4.41
2019-03-27T04:08:32.318Z,4.44
2019-03-27T04:09:32.311Z,4.41
2019-03-27T04:10:32.301Z,4.40
2019-03-27T04:11:32.282Z,4.38
2019-03-27T04:12:32.267Z,4.30
2019-03-27T04:13:32.255Z,4.35
2019-03-27T04:14:32.245Z,4.35
2019-03-27T04:15:32.230Z,4.30
2019-03-27T04:16:32.217Z,4.22
2019-03-27T04:17:32.344Z,4.31
2019-03-27T04:18:32.191Z,4.35
2019-03-27T04:19:32.178Z,4.38
2019-03-27T04:20:32.165Z,4.31
2019-03-27T04:21:32.153Z,4.37
2019-03-27T04:22:32.178Z,4.24
2019-03-27T04:23:32.137Z,4.40
2019-03-27T04:24:32.114Z,4.34
2019-03-27T04:26:00.318Z,4.26
2019-03-27T04:26:33.712Z,4.35
2019-03-27T04:27:32.075Z,4.35
2019-03-27T04:28:32.061Z,4.19
2019-03-27T04:29:32.051Z,4.12
2019-03-27T04:30:32.036Z,4.13
2019-03-27T04:31:32.026Z,4.08
2019-03-27T04:32:32.010Z,4.10
2019-03-27T04:33:32.116Z,4.16
2019-03-27T04:34:31.984Z,4.05
2019-03-27T04:35:31.972Z,4.13
2019-03-27T04:36:31.957Z,4.08
2019-03-27T04:37:31.945Z,4.06
2019-03-27T04:38:31.934Z,4.02
2019-03-27T04:39:31.919Z,4.06
2019-03-27T04:40:31.907Z,4.10
2019-03-27T04:41:31.893Z,4.12
2019-03-27T04:42:31.880Z,4.08
2019-03-27T04:43:31.869Z,4.05
2019-03-27T04:44:31.854Z,4.10
2019-03-27T04:45:31.840Z,4.06
2019-03-27T04:46:31.828Z,4.10
2019-03-27T04:47:32.710Z,4.20
2019-03-27T04:48:31.801Z,4.17
2019-03-27T04:49:31.790Z,4.10
2019-03-27T04:50:31.775Z,4.06
2019-03-27T04:51:31.762Z,4.08
2019-03-27T04:52:31.748Z,4.06
2019-03-27T04:53:31.736Z,3.92
2019-03-27T04:54:31.726Z,4.01
2019-03-27T04:55:31.710Z,4.05
2019-03-27T04:56:31.697Z,4.02
2019-03-27T04:57:31.683Z,3.95
2019-03-27T04:58:31.670Z,3.95
2019-03-27T04:59:31.657Z,3.95
2019-03-27T05:00:31.643Z,3.95
2019-03-27T05:01:31.635Z,3.92
2019-03-27T05:02:31.621Z,3.98
2019-03-27T05:03:31.604Z,3.86
2019-03-27T05:04:31.590Z,3.87
2019-03-27T05:05:31.580Z,3.78
2019-03-27T05:06:31.564Z,3.83
2019-03-27T05:07:31.552Z,3.80
2019-03-27T05:08:31.539Z,3.86
2019-03-27T05:09:31.526Z,3.80
2019-03-27T05:10:31.557Z,3.77
2019-03-27T05:11:31.499Z,3.83
2019-03-27T05:12:31.485Z,3.87
2019-03-27T05:13:31.519Z,3.86
2019-03-27T05:14:31.459Z,3.98
2019-03-27T05:15:31.449Z,3.87
2019-03-27T05:16:31.432Z,3.99
2019-03-27T05:17:44.751Z,3.95
2019-03-27T05:18:31.411Z,3.96
2019-03-27T05:19:31.393Z,4.10
2019-03-27T05:20:31.380Z,4.04
2019-03-27T05:21:31.366Z,4.01
2019-03-27T05:22:31.353Z,4.08
2019-03-27T05:23:31.340Z,4.02
2019-03-27T05:24:31.327Z,4.08
2019-03-27T05:25:31.385Z,4.13
2019-03-27T05:26:31.378Z,4.05
2019-03-27T05:27:31.289Z,4.08
2019-03-27T05:28:31.275Z,4.17
2019-03-27T05:29:31.264Z,4.17
2019-03-27T05:30:31.249Z,4.17
2019-03-27T05:31:31.239Z,4.26
2019-03-27T05:32:31.225Z,4.28
2019-03-27T05:33:32.796Z,4.28
2019-03-27T05:34:31.199Z,4.34
2019-03-27T05:35:31.186Z,4.30
2019-03-27T05:36:31.171Z,4.35
2019-03-27T05:37:31.159Z,4.35
2019-03-27T05:38:31.147Z,4.31
2019-03-27T05:39:31.135Z,4.34
2019-03-27T05:40:31.121Z,4.40
2019-03-27T05:41:31.108Z,4.41
2019-03-27T05:42:31.096Z,4.48
2019-03-27T05:43:31.083Z,4.52
2019-03-27T05:44:31.070Z,4.56
2019-03-27T05:45:31.058Z,4.62
2019-03-27T05:46:31.045Z,4.62
2019-03-27T05:47:31.033Z,4.62
2019-03-27T05:48:31.060Z,4.49
2019-03-27T05:49:31.006Z,4.56
2019-03-27T05:50:30.994Z,4.48
2019-03-27T05:51:30.984Z,4.58
2019-03-27T05:52:30.969Z,4.62
2019-03-27T05:53:30.956Z,4.66
2019-03-27T05:54:30.946Z,4.75
2019-03-27T05:55:30.932Z,4.71
2019-03-27T05:56:30.919Z,4.73
2019-03-27T05:57:30.906Z,4.78
2019-03-27T05:58:30.893Z,4.87
2019-03-27T05:59:30.881Z,4.87
2019-03-27T06:00:33.406Z,4.93
2019-03-27T06:01:30.860Z,4.86
2019-03-27T06:02:30.850Z,4.94
2019-03-27T06:03:30.831Z,4.90
2019-03-27T06:04:30.821Z,4.99
2019-03-27T06:05:30.806Z,5.05
2019-03-27T06:06:30.794Z,5.04
2019-03-27T06:07:30.781Z,4.97
2019-03-27T06:08:30.770Z,5.04
2019-03-27T06:09:30.757Z,5.11
2019-03-27T06:10:30.745Z,5.21
2019-03-27T06:11:30.732Z,5.12
2019-03-27T06:12:30.720Z,5.14
2019-03-27T06:13:30.707Z,5.15
2019-03-27T06:14:30.695Z,5.18
2019-03-27T06:15:30.683Z,5.25
2019-03-27T06:16:30.671Z,5.20
2019-03-27T06:17:30.659Z,5.14
2019-03-27T06:18:30.653Z,5.08
2019-03-27T06:19:30.636Z,5.11
2019-03-27T06:20:30.621Z,5.15
2019-03-27T06:21:30.611Z,5.17
2019-03-27T06:22:30.599Z,5.17
2019-03-27T06:23:30.594Z,5.18
2019-03-27T06:24:30.573Z,5.23
2019-03-27T06:25:30.561Z,5.29
2019-03-27T06:26:30.550Z,5.28
2019-03-27T06:27:30.537Z,5.32
2019-03-27T06:28:30.524Z,5.28
2019-03-27T06:29:30.538Z,5.26
2019-03-27T06:30:30.501Z,5.35
2019-03-27T06:31:30.489Z,5.30
2019-03-27T06:32:30.476Z,5.35
2019-03-27T06:33:30.465Z,5.44
2019-03-27T06:34:30.454Z,5.57
2019-03-27T06:35:30.461Z,5.57
2019-03-27T06:36:30.428Z,5.61
2019-03-27T06:37:30.418Z,5.57
2019-03-27T06:38:30.405Z,5.64
2019-03-27T06:39:30.395Z,5.64
2019-03-27T06:40:30.380Z,5.86
2019-03-27T06:41:30.369Z,5.94
2019-03-27T06:42:30.359Z,5.91
2019-03-27T06:43:30.346Z,6.07
2019-03-27T06:44:30.336Z,6.07
2019-03-27T06:45:30.323Z,6.07
2019-03-27T06:46:30.313Z,6.14
2019-03-27T06:47:30.303Z,6.39
2019-03-27T06:48:30.289Z,6.48
2019-03-27T06:49:30.277Z,6.63
2019-03-27T06:50:30.266Z,6.66
2019-03-27T06:51:39.847Z,6.87
2019-03-27T06:52:30.243Z,6.88
2019-03-27T06:53:30.232Z,6.96
2019-03-27T06:54:30.222Z,6.95
2019-03-27T06:55:30.211Z,6.87
2019-03-27T06:56:30.201Z,6.99
2019-03-27T06:57:30.189Z,6.85
2019-03-27T06:58:30.178Z,6.95
2019-03-27T06:59:30.221Z,6.88
2019-03-27T07:00:30.163Z,6.85
2019-03-27T07:01:30.147Z,6.79
2019-03-27T07:02:30.134Z,6.82
2019-03-27T07:03:30.123Z,6.93
2019-03-27T07:04:30.111Z,6.97
2019-03-27T07:05:30.101Z,7.02
2019-03-27T07:06:30.092Z,6.97
2019-03-27T07:07:30.079Z,6.96
2019-03-27T07:08:30.067Z,6.99
2019-03-27T07:09:30.057Z,6.97
2019-03-27T07:10:30.045Z,6.97
2019-03-27T07:11:30.037Z,7.00
2019-03-27T07:12:30.101Z,7.07
2019-03-27T07:13:30.013Z,7.17
2019-03-27T07:14:30.002Z,7.18
2019-03-27T07:15:29.991Z,7.18
2019-03-27T07:16:29.980Z,7.18
2019-03-27T07:17:29.976Z,7.28
2019-03-27T07:18:39.923Z,7.32
2019-03-27T07:19:29.948Z,7.39
2019-03-27T07:20:29.937Z,7.43
2019-03-27T07:21:29.935Z,7.48
2019-03-27T07:22:29.917Z,7.61
2019-03-27T07:23:29.908Z,7.79
2019-03-27T07:24:29.896Z,7.91
2019-03-27T07:25:29.886Z,8.06
2019-03-27T07:26:29.876Z,8.18
2019-03-27T07:27:29.867Z,8.33
2019-03-27T07:28:29.931Z,8.30
2019-03-27T07:29:29.847Z,8.46
2019-03-27T07:30:29.836Z,8.53
2019-03-27T07:31:29.828Z,8.49
2019-03-27T07:32:29.817Z,8.26
2019-03-27T07:33:29.807Z,8.37
2019-03-27T07:34:29.803Z,8.19
2019-03-27T07:35:29.789Z,8.24
2019-03-27T07:36:29.778Z,8.31
2019-03-27T07:37:29.769Z,8.31
2019-03-27T07:38:29.760Z,8.28
2019-03-27T07:39:29.751Z,8.31
2019-03-27T07:40:29.740Z,8.20
2019-03-27T07:41:29.733Z,8.20
2019-03-27T07:42:29.722Z,8.30
2019-03-27T07:43:29.713Z,8.44
2019-03-27T07:44:29.751Z,8.52
2019-03-27T07:45:29.692Z,8.56
2019-03-27T07:46:29.683Z,8.63
2019-03-27T07:47:29.675Z,8.70
2019-03-27T07:48:29.667Z,8.63
2019-03-27T07:49:29.655Z,8.52
2019-03-27T07:50:29.646Z,8.61
2019-03-27T07:51:29.638Z,8.67
2019-03-27T07:52:29.629Z,8.88
2019-03-27T07:53:29.621Z,8.94
2019-03-27T07:54:29.611Z,8.97
2019-03-27T07:55:29.604Z,8.97
2019-03-27T07:56:29.594Z,9.16
2019-03-27T07:57:29.586Z,9.29
2019-03-27T07:58:29.578Z,9.21
2019-03-27T07:59:29.571Z,9.22
2019-03-27T08:00:29.562Z,9.26
2019-03-27T08:01:29.555Z,9.55
2019-03-27T08:02:29.547Z,9.83
2019-03-27T08:03:29.542Z,10.07
2019-03-27T08:04:29.541Z,10.20
2019-03-27T08:05:29.527Z,10.35
2019-03-27T08:06:29.521Z,10.44
2019-03-27T08:07:29.517Z,10.41
2019-03-27T08:08:29.511Z,10.25
2019-03-27T08:09:29.505Z,10.19
2019-03-27T08:10:29.500Z,10.15
2019-03-27T08:11:29.548Z,10.22
2019-03-27T08:12:29.518Z,10.15
2019-03-27T08:13:29.484Z,10.22
2019-03-27T08:14:29.478Z,10.20
2019-03-27T08:15:29.472Z,10.17
2019-03-27T08:16:29.466Z,10.33
2019-03-27T08:17:29.461Z,10.33
2019-03-27T08:18:29.458Z,10.49
2019-03-27T08:19:29.450Z,10.79
2019-03-27T08:20:29.445Z,11.15
2019-03-27T08:21:31.256Z,11.19
2019-03-27T08:22:29.437Z,11.29
2019-03-27T08:23:29.434Z,11.17
2019-03-27T08:24:29.492Z,11.29
2019-03-27T08:25:29.428Z,11.18
2019-03-27T08:26:29.422Z,11.05
2019-03-27T08:27:29.417Z,10.92
2019-03-27T08:28:29.462Z,10.67
2019-03-27T08:29:29.409Z,10.42
2019-03-27T08:30:29.403Z,10.33
2019-03-27T08:31:29.398Z,10.10
2019-03-27T08:32:29.392Z,10.01
2019-03-27T08:33:29.387Z,9.83
2019-03-27T08:34:29.381Z,9.89
2019-03-27T08:35:29.379Z,10.25
2019-03-27T08:36:29.369Z,10.68
2019-03-27T08:37:29.366Z,11.17
2019-03-27T08:38:29.360Z,11.70
2019-03-27T08:39:29.357Z,12.27
2019-03-27T08:40:29.356Z,12.80
2019-03-27T08:41:29.350Z,13.11
2019-03-27T08:42:29.350Z,13.41
2019-03-27T08:43:29.347Z,13.30
2019-03-27T08:44:29.352Z,13.47
2019-03-27T08:45:29.344Z,13.25
2019-03-27T08:46:29.345Z,13.49
2019-03-27T08:47:29.344Z,13.57
2019-03-27T08:48:29.344Z,13.67
2019-03-27T08:49:29.343Z,13.75
2019-03-27T08:50:29.344Z,13.70
2019-03-27T08:51:29.350Z,13.44
2019-03-27T08:52:29.348Z,13.11
2019-03-27T08:53:29.374Z,12.93
2019-03-27T08:54:29.395Z,12.61
2019-03-27T08:55:29.344Z,12.10
2019-03-27T08:56:29.344Z,11.75
2019-03-27T08:57:29.342Z,11.60
2019-03-27T08:58:29.341Z,11.75
2019-03-27T08:59:29.340Z,11.83
2019-03-27T09:00:29.338Z,11.80
2019-03-27T09:01:29.337Z,12.12
2019-03-27T09:02:29.338Z,12.54
2019-03-27T09:03:29.338Z,12.46
2019-03-27T09:04:29.335Z,12.42
2019-03-27T09:05:29.336Z,12.31
2019-03-27T09:06:33.857Z,12.27
2019-03-27T09:07:29.334Z,11.81
2019-03-27T09:08:29.332Z,11.51
2019-03-27T09:09:29.331Z,11.17
2019-03-27T09:10:29.330Z,10.93
2019-03-27T09:11:29.329Z,10.75
2019-03-27T09:12:29.324Z,10.75
2019-03-27T09:13:29.322Z,10.54
2019-03-27T09:14:29.319Z,10.60
2019-03-27T09:15:29.316Z,10.56
2019-03-27T09:16:29.312Z,10.82
2019-03-27T09:17:29.308Z,10.96
2019-03-27T09:18:29.306Z,11.08
2019-03-27T09:19:35.742Z,11.04
2019-03-27T09:20:29.296Z,11.07
2019-03-27T09:21:29.295Z,11.07
2019-03-27T09:22:29.288Z,11.11
2019-03-27T09:23:29.284Z,11.26
2019-03-27T09:24:29.279Z,11.52
2019-03-27T09:25:29.274Z,11.66
2019-03-27T09:26:29.269Z,11.97
2019-03-27T09:27:29.265Z,12.47
2019-03-27T09:28:29.260Z,13.08
2019-03-27T09:29:29.259Z,13.30
2019-03-27T09:30:29.255Z,13.49
2019-03-27T09:31:29.252Z,13.68
2019-03-27T09:32:29.249Z,13.79
2019-03-27T09:33:29.251Z,13.56
2019-03-27T09:34:29.296Z,13.49
2019-03-27T09:35:29.243Z,13.28
2019-03-27T09:36:29.239Z,13.19
2019-03-27T09:37:29.237Z,13.09
2019-03-27T09:38:29.233Z,12.97
2019-03-27T09:39:29.231Z,12.87
2019-03-27T09:40:29.229Z,12.75
2019-03-27T09:41:29.223Z,12.55
2019-03-27T09:42:29.226Z,12.15
2019-03-27T09:43:29.215Z,12.00
2019-03-27T09:44:29.212Z,11.75
2019-03-27T09:45:29.207Z,11.60
2019-03-27T09:46:29.202Z,11.41
2019-03-27T09:47:29.199Z,11.32
2019-03-27T09:48:29.192Z,11.15
2019-03-27T09:49:29.186Z,11.17
2019-03-27T09:50:29.270Z,11.07
2019-03-27T09:51:29.175Z,11.02
2019-03-27T09:52:29.169Z,10.90
2019-03-27T09:53:29.213Z,10.63
2019-03-27T09:54:29.161Z,10.69
2019-03-27T09:55:29.151Z,10.64
2019-03-27T09:56:29.148Z,10.67
2019-03-27T09:57:29.137Z,10.68
2019-03-27T09:58:29.134Z,10.68
2019-03-27T09:59:29.124Z,10.67
2019-03-27T10:00:29.116Z,10.76
2019-03-27T10:01:29.113Z,10.68
2019-03-27T10:02:29.111Z,10.54
2019-03-27T10:03:29.096Z,10.41
2019-03-27T10:04:29.090Z,10.23
2019-03-27T10:05:29.083Z,10.22
2019-03-27T10:06:29.079Z,10.30
2019-03-27T10:07:29.069Z,10.57
2019-03-27T10:08:29.141Z,10.67
2019-03-27T10:09:29.051Z,10.74
2019-03-27T10:10:29.043Z,10.79
2019-03-27T10:11:29.037Z,10.75
2019-03-27T10:12:29.029Z,10.84
2019-03-27T10:13:29.021Z,10.79
2019-03-27T10:14:29.015Z,10.76
2019-03-27T10:15:29.006Z,10.90
2019-03-27T10:16:28.998Z,11.04
2019-03-27T10:17:28.991Z,11.18
2019-03-27T10:18:28.984Z,11.15
2019-03-27T10:19:28.984Z,11.25
2019-03-27T10:20:29.019Z,11.22
2019-03-27T10:21:28.966Z,11.27
2019-03-27T10:22:28.955Z,11.17
2019-03-27T10:23:28.948Z,11.26
2019-03-27T10:24:28.940Z,11.19
2019-03-27T10:25:28.939Z,11.18
2019-03-27T10:26:28.926Z,11.25
2019-03-27T10:27:28.920Z,11.36
2019-03-27T10:28:28.911Z,11.32
2019-03-27T10:29:28.905Z,11.37
2019-03-27T10:30:28.903Z,11.40
2019-03-27T10:31:28.892Z,11.33
2019-03-27T10:32:28.884Z,11.47
2019-03-27T10:33:28.877Z,11.55
2019-03-27T10:34:28.871Z,11.47
2019-03-27T10:35:28.863Z,11.50
2019-03-27T10:36:28.857Z,11.50
2019-03-27T10:37:28.883Z,11.45
2019-03-27T10:38:28.842Z,11.44
2019-03-27T10:39:28.838Z,11.50
2019-03-27T10:40:28.828Z,11.57
2019-03-27T10:41:28.821Z,11.47
2019-03-27T10:42:28.814Z,11.47
2019-03-27T10:43:28.807Z,11.37
2019-03-27T10:44:28.799Z,11.40
2019-03-27T10:45:28.793Z,11.43
2019-03-27T10:46:28.785Z,11.37
2019-03-27T10:47:28.778Z,11.54
2019-03-27T10:48:28.774Z,11.51
2019-03-27T10:49:28.764Z,11.50
2019-03-27T10:50:28.763Z,11.45
2019-03-27T10:51:28.750Z,11.51
2019-03-27T10:52:28.748Z,11.40
2019-03-27T10:53:28.735Z,11.18
2019-03-27T10:54:28.732Z,11.11
2019-03-27T10:55:28.772Z,11.07
2019-03-27T10:56:28.712Z,11.00
2019-03-27T10:57:28.704Z,10.87
2019-03-27T10:58:28.717Z,10.69
2019-03-27T10:59:28.690Z,10.72
2019-03-27T11:00:28.689Z,10.84
2019-03-27T11:01:28.674Z,10.63
2019-03-27T11:02:28.666Z,10.60
2019-03-27T11:03:28.658Z,10.46
2019-03-27T11:04:28.653Z,10.44
2019-03-27T11:05:28.642Z,10.56
2019-03-27T11:06:28.635Z,10.74
2019-03-27T11:07:28.626Z,10.64
2019-03-27T11:08:28.622Z,10.63
2019-03-27T11:09:28.610Z,10.67
2019-03-27T11:10:28.602Z,10.56
2019-03-27T11:11:28.594Z,10.71
2019-03-27T11:12:28.585Z,10.79
2019-03-27T11:13:28.577Z,10.78
2019-03-27T11:14:37.805Z,10.84
2019-03-27T11:15:28.562Z,10.84
2019-03-27T11:16:28.562Z,10.82
2019-03-27T11:17:28.545Z,10.69
2019-03-27T11:18:28.541Z,10.69
2019-03-27T11:19:28.529Z,10.69
2019-03-27T11:20:31.314Z,10.78
2019-03-27T11:21:28.512Z,10.75
2019-03-27T11:22:28.505Z,10.87
2019-03-27T11:23:28.497Z,10.79
2019-03-27T11:24:28.487Z,10.81
2019-03-27T11:25:28.481Z,10.89
2019-03-27T11:26:28.473Z,10.87
2019-03-27T11:27:28.464Z,10.92
2019-03-27T11:28:28.456Z,10.90
2019-03-27T11:29:28.448Z,10.93
2019-03-27T11:30:28.441Z,10.89
2019-03-27T11:31:28.432Z,10.84
2019-03-27T11:32:28.423Z,11.05
2019-03-27T11:33:29.034Z,11.17
2019-03-27T11:34:28.408Z,11.25
2019-03-27T11:35:28.402Z,11.02
2019-03-27T11:36:28.393Z,11.08
2019-03-27T11:37:28.386Z,10.94
2019-03-27T11:38:28.376Z,11.02
2019-03-27T11:39:28.368Z,10.99
2019-03-27T11:40:28.359Z,11.04
2019-03-27T11:41:28.352Z,11.08
2019-03-27T11:42:28.344Z,11.15
2019-03-27T11:43:28.337Z,11.37
2019-03-27T11:44:28.328Z,11.19
2019-03-27T11:45:28.321Z,11.07
2019-03-27T11:46:28.314Z,11.11
2019-03-27T11:47:28.306Z,11.15
2019-03-27T11:48:28.302Z,11.14
2019-03-27T11:49:28.289Z,11.14
2019-03-27T11:50:28.285Z,11.18
2019-03-27T11:51:28.274Z,11.18
2019-03-27T11:52:29.878Z,11.22
2019-03-27T11:53:28.260Z,11.12
2019-03-27T11:54:28.249Z,11.35
2019-03-27T11:55:28.244Z,11.08
2019-03-27T11:56:28.234Z,11.02
2019-03-27T11:57:28.231Z,11.25
2019-03-27T11:58:28.217Z,11.41
2019-03-27T11:59:28.214Z,11.37
2019-03-27T12:00:28.205Z,11.45
2019-03-27T12:01:39.257Z,11.37
2019-03-27T12:02:28.188Z,11.29
2019-03-27T12:03:28.177Z,11.30
2019-03-27T12:04:28.169Z,11.48
2019-03-27T12:05:28.162Z,11.59
2019-03-27T12:06:28.159Z,11.68
2019-03-27T12:07:28.146Z,11.77
2019-03-27T12:08:28.138Z,12.09
2019-03-27T12:09:28.131Z,12.28
2019-03-27T12:10:28.123Z,12.49
2019-03-27T12:11:28.120Z,12.67
2019-03-27T12:12:28.109Z,12.83
2019-03-27T12:13:28.105Z,12.79
2019-03-27T12:14:28.095Z,12.76
2019-03-27T12:15:28.089Z,12.91
2019-03-27T12:16:28.092Z,13.13
2019-03-27T12:17:28.076Z,13.63
2019-03-27T12:18:28.069Z,14.03
2019-03-27T12:19:28.064Z,14.20
2019-03-27T12:20:28.060Z,14.11
2019-03-27T12:21:28.053Z,14.07
2019-03-27T12:22:28.048Z,14.03
2019-03-27T12:23:28.046Z,13.86
2019-03-27T12:24:28.763Z,14.07
2019-03-27T12:25:28.034Z,14.36
2019-03-27T12:26:28.035Z,14.32
2019-03-27T12:27:28.026Z,14.30
2019-03-27T12:28:28.018Z,14.23
2019-03-27T12:29:28.014Z,13.90
2019-03-27T12:30:28.015Z,14.08
2019-03-27T12:31:28.005Z,14.03
2019-03-27T12:32:28.011Z,13.97
2019-03-27T12:33:28.002Z,13.75
2019-03-27T12:34:27.990Z,13.71
2019-03-27T12:35:27.986Z,13.78
2019-03-27T12:36:27.984Z,13.92
2019-03-27T12:37:27.976Z,13.85
2019-03-27T12:38:27.972Z,13.81
2019-03-27T12:39:27.983Z,13.77
2019-03-27T12:40:27.962Z,13.35
2019-03-27T12:41:27.967Z,12.95
2019-03-27T12:42:27.954Z,12.86
2019-03-27T12:43:27.970Z,12.80
2019-03-27T12:44:27.941Z,12.85
2019-03-27T12:45:27.935Z,13.08
2019-03-27T12:46:27.930Z,13.15
2019-03-27T12:47:27.925Z,12.95
2019-03-27T12:48:27.920Z,12.98
2019-03-27T12:49:27.913Z,12.79
2019-03-27T12:50:27.913Z,12.54
2019-03-27T12:51:27.903Z,12.39
2019-03-27T12:52:27.896Z,12.55
2019-03-27T12:53:27.891Z,12.54
2019-03-27T12:54:27.885Z,12.49
2019-03-27T12:55:27.879Z,12.31
2019-03-27T12:56:27.872Z,12.21
2019-03-27T12:57:27.869Z,12.17
2019-03-27T12:58:27.873Z,12.28
2019-03-27T12:59:27.855Z,12.00
2019-03-27T13:00:27.848Z,12.07
2019-03-27T13:01:27.842Z,12.06
2019-03-27T13:02:27.841Z,12.00
2019-03-27T13:03:27.831Z,12.10
2019-03-27T13:04:27.823Z,12.04
2019-03-27T13:05:27.826Z,12.07
2019-03-27T13:06:27.809Z,12.15
2019-03-27T13:07:27.803Z,12.28
2019-03-27T13:08:27.796Z,12.60